Time;durP1;ratioP1;P1;durP2;ratioP2;P2;SDS_P1;SDS_P2;PMS_P1;PMS_P2;Temp;Humidity;BMP_temperature;BMP_pressure;BME280_temperature;BME280_humidity;BME280_pressure;Samples;Min_cycle;Max_cycle;Signal;HPM_P1;HPM_P2
2022/04/13 05:32:32;;;;;;;15.27;8.65;;;;;;;8.88;65.88;98728.22;5081508;27;20422;-59
2022/04/13 05:35:01;;;;;;;19.70;9.35;;;;;;;8.90;65.64;98725.50;5056641;28;20047;-59
2022/04/13 05:37:30;;;;;;;26.35;11.02;;;;;;;9.04;65.85;98733.75;5069062;28;20055;-59
2022/04/13 05:39:55;;;;;;;26.23;10.43;;;;;;;9.14;65.59;98735.53;5069557;28;20028;-59
2022/04/13 05:42:22;;;;;;;28.35;11.07;;;;;;;9.15;65.30;98735.41;5071292;28;20448;-59
2022/04/13 05:44:48;;;;;;;27.77;10.00;;;;;;;9.18;65.57;98731.72;5074956;28;21091;-60
2022/04/13 05:47:13;;;;;;;19.63;10.20;;;;;;;9.23;65.40;98732.97;5050321;28;20859;-58
2022/04/13 05:49:38;;;;;;;21.15;10.23;;;;;;;9.36;64.22;98739.69;5061691;28;20392;-59
2022/04/13 05:52:04;;;;;;;29.27;11.38;;;;;;;9.39;65.18;98742.84;5063741;28;20119;-59
2022/04/13 05:54:29;;;;;;;24.00;11.05;;;;;;;9.39;64.66;98739.44;5064913;28;20345;-59
2022/04/13 05:56:55;;;;;;;26.60;11.80;;;;;;;9.46;64.70;98739.72;5061092;28;20506;-59
2022/04/13 05:59:20;;;;;;;28.52;9.90;;;;;;;9.49;65.41;98750.66;5050400;28;20036;-60
2022/04/13 06:01:46;;;;;;;21.73;9.90;;;;;;;9.52;64.08;98746.97;5055303;28;20031;-59
2022/04/13 06:04:11;;;;;;;19.00;9.93;;;;;;;9.51;64.71;98737.50;5065477;28;20039;-61
2022/04/13 06:06:36;;;;;;;20.95;9.82;;;;;;;9.58;64.40;98751.59;5078819;28;20016;-60
2022/04/13 06:09:02;;;;;;;17.45;9.85;;;;;;;9.49;65.04;98750.66;5048210;28;20024;-59
2022/04/13 06:11:27;;;;;;;15.52;9.48;;;;;;;9.40;65.87;98757.47;5046030;28;20025;-59
2022/04/13 06:13:53;;;;;;;14.95;9.02;;;;;;;9.39;66.28;98755.81;5055795;28;20070;-59
2022/04/13 06:16:18;;;;;;;16.65;10.20;;;;;;;9.48;65.61;98754.19;5059420;28;20032;-58
2022/04/13 06:18:44;;;;;;;16.02;10.23;;;;;;;9.58;64.71;98754.19;5052260;28;20522;-59
2022/04/13 06:21:10;;;;;;;18.15;10.15;;;;;;;9.68;65.18;98762.81;5054542;28;20037;-62
2022/04/13 06:23:35;;;;;;;18.85;9.55;;;;;;;9.72;64.34;98764.19;5043858;28;20037;-58
2022/04/13 06:26:01;;;;;;;16.77;9.88;;;;;;;9.68;65.72;98765.44;5075277;28;20021;-59
2022/04/13 06:28:26;;;;;;;14.82;9.68;;;;;;;9.67;65.89;98779.34;5058375;28;20467;-60
2022/04/13 06:30:51;;;;;;;18.38;10.45;;;;;;;9.56;66.38;98771.69;5052031;28;20087;-60
2022/04/13 06:33:18;;;;;;;16.00;9.73;;;;;;;9.20;66.71;98717.69;5065380;28;20032;-59
2022/04/13 06:35:44;;;;;;;16.45;9.52;;;;;;;9.63;68.27;98776.19;5070292;28;20105;-58
2022/04/13 06:38:09;;;;;;;14.77;9.18;;;;;;;9.60;68.77;98773.06;5067797;28;20077;-59
2022/04/13 06:40:35;;;;;;;16.20;9.73;;;;;;;9.65;67.49;98777.84;5066608;28;20020;-59
2022/04/13 06:43:00;;;;;;;14.77;10.35;;;;;;;9.35;68.36;98727.69;5055835;28;20113;-60
2022/04/13 06:45:26;;;;;;;13.43;9.45;;;;;;;9.49;69.24;98781.81;5037941;28;20039;-58
2022/04/13 06:47:51;;;;;;;14.65;9.70;;;;;;;9.42;69.61;98765.13;5033300;28;20484;-58
2022/04/13 06:50:17;;;;;;;14.20;10.02;;;;;;;9.49;70.37;98778.38;5083571;28;20028;-60
2022/04/13 06:52:42;;;;;;;16.67;9.98;;;;;;;9.45;69.77;98769.22;5054403;28;20538;-58
2022/04/13 06:55:11;;;;;;;17.77;9.88;;;;;;;9.50;69.77;98786.03;5034241;28;20032;-62
2022/04/13 06:57:37;;;;;;;14.25;9.50;;;;;;;9.59;69.27;98787.00;5050357;28;20913;-60
2022/04/13 07:00:05;;;;;;;17.83;9.50;;;;;;;9.70;68.32;98791.25;5045605;28;20442;-61
2022/04/13 07:02:31;;;;;;;16.02;9.10;;;;;;;9.77;68.99;98787.16;5042532;28;20031;-60
2022/04/13 07:04:56;;;;;;;15.75;9.95;;;;;;;9.84;68.82;98790.03;5054744;28;20044;-59
2022/04/13 07:07:22;;;;;;;15.50;9.60;;;;;;;9.60;68.33;98753.13;5047243;28;20041;-59
2022/04/13 07:09:47;;;;;;;14.75;9.35;;;;;;;9.88;68.28;98787.03;5063437;28;20081;-60
2022/04/13 07:12:13;;;;;;;16.33;10.10;;;;;;;10.00;67.53;98795.50;5054401;28;20025;-58
2022/04/13 07:14:41;;;;;;;22.58;10.20;;;;;;;9.95;67.60;98771.75;5052349;28;20036;-59
2022/04/13 07:17:08;;;;;;;14.15;9.32;;;;;;;9.72;66.54;98732.22;5045144;28;20025;-59
2022/04/13 07:19:33;;;;;;;13.98;9.02;;;;;;;10.16;65.66;98792.38;5041958;28;20032;-58
2022/04/13 07:21:59;;;;;;;14.80;9.13;;;;;;;10.24;65.64;98787.31;5046097;28;20039;-60
2022/04/13 07:24:26;;;;;;;18.13;10.02;;;;;;;10.29;65.10;98799.88;5050965;28;20387;-60
2022/04/13 07:26:51;;;;;;;33.92;9.70;;;;;;;10.33;64.61;98796.06;5038014;28;20185;-58
2022/04/13 07:29:17;;;;;;;20.90;9.23;;;;;;;10.38;64.72;98804.28;5029900;28;20151;-58
2022/04/13 07:31:42;;;;;;;15.95;9.10;;;;;;;10.17;63.79;98763.66;5058268;28;20032;-58
2022/04/13 07:34:08;;;;;;;15.07;8.77;;;;;;;10.59;63.10;98809.31;5065355;28;20029;-58
2022/04/13 07:36:33;;;;;;;14.77;9.10;;;;;;;10.66;63.42;98801.75;5033492;28;20483;-58
2022/04/13 07:38:59;;;;;;;12.68;8.43;;;;;;;10.59;63.17;98796.31;5035777;28;20036;-60
2022/04/13 07:41:24;;;;;;;16.42;8.75;;;;;;;10.65;62.63;98798.34;5031041;28;20052;-59
2022/04/13 07:43:50;;;;;;;15.57;8.25;;;;;;;10.37;63.14;98750.66;5042243;28;20024;-60
2022/04/13 07:46:16;;;;;;;13.73;8.57;;;;;;;10.80;63.26;98801.31;5040444;28;20039;-59
2022/04/13 07:48:41;;;;;;;14.27;8.85;;;;;;;10.60;62.18;98760.72;5043698;28;20099;-58
2022/04/13 07:51:06;;;;;;;16.85;9.20;;;;;;;10.88;61.92;98804.03;5043340;28;20078;-59
2022/04/13 07:53:32;;;;;;;14.85;9.05;;;;;;;10.84;63.24;98801.84;5036198;28;20028;-58
2022/04/13 07:55:57;;;;;;;13.02;8.75;;;;;;;10.91;62.33;98801.13;5047246;28;20029;-59
2022/04/13 07:58:23;;;;;;;15.25;10.25;;;;;;;10.89;61.21;98792.66;5036081;28;20033;-59
2022/04/13 08:00:48;;;;;;;15.77;9.25;;;;;;;10.93;62.70;98798.41;5040660;28;20028;-58
2022/04/13 08:03:13;;;;;;;15.90;9.50;;;;;;;10.85;62.25;98800.91;5050612;28;20029;-61
2022/04/13 08:05:40;;;;;;;18.17;9.95;;;;;;;10.76;61.88;98790.38;5042889;28;20039;-58
2022/04/13 08:08:06;;;;;;;16.10;10.15;;;;;;;10.77;62.20;98788.63;5043865;28;20036;-58
2022/04/13 08:10:31;;;;;;;15.43;9.80;;;;;;;10.46;63.00;98749.81;5043813;28;20025;-58
2022/04/13 08:12:57;;;;;;;16.80;10.10;;;;;;;10.65;63.33;98797.53;5042027;28;20021;-59
2022/04/13 08:15:22;;;;;;;21.55;11.63;;;;;;;10.70;62.00;98792.75;5042429;28;20454;-58
2022/04/13 08:17:47;;;;;;;14.50;8.90;;;;;;;10.77;60.05;98801.63;5049916;28;20897;-60
2022/04/13 08:20:14;;;;;;;13.88;9.18;;;;;;;10.74;61.54;98796.69;5042151;28;20032;-58
2022/04/13 08:22:41;;;;;;;15.75;9.20;;;;;;;10.72;61.21;98790.81;5029919;28;20029;-59
2022/04/13 08:25:07;;;;;;;15.07;9.18;;;;;;;10.92;61.34;98797.59;5023759;28;20108;-59
2022/04/13 08:27:32;;;;;;;16.33;9.35;;;;;;;10.95;61.06;98799.06;5042706;28;20028;-59
2022/04/13 08:29:58;;;;;;;18.42;9.38;;;;;;;10.88;60.42;98791.03;5045217;28;20016;-58
2022/04/13 08:32:23;;;;;;;14.77;9.10;;;;;;;10.99;59.73;98782.25;5048797;28;20047;-59
2022/04/13 08:34:51;;;;;;;18.67;9.23;;;;;;;11.20;59.14;98787.19;5045583;28;20029;-58
2022/04/13 08:37:20;;;;;;;14.85;9.18;;;;;;;12.58;53.41;98777.44;5037907;28;20111;-59
2022/04/13 08:39:46;;;;;;;16.80;9.57;;;;;;;13.79;49.70;98780.72;5049226;28;20029;-58
2022/04/13 08:42:13;;;;;;;15.07;9.27;;;;;;;14.29;47.35;98772.88;5067037;28;21056;-60
2022/04/13 08:44:48;;;;;;;14.55;9.13;;;;;;;14.78;45.51;98780.69;5059922;28;20029;-59
2022/04/13 08:47:19;;;;;;;17.63;9.75;;;;;;;14.66;46.32;98780.25;5051892;28;20534;-61
2022/04/13 08:49:45;;;;;;;19.92;10.38;;;;;;;14.28;46.76;98769.47;5059809;28;20491;-58
2022/04/13 08:52:13;;;;;;;18.77;10.93;;;;;;;13.93;47.17;98768.81;5080632;28;20048;-59
2022/04/13 08:54:45;;;;;;;19.77;10.90;;;;;;;13.68;48.36;98772.38;5041807;28;20025;-59
2022/04/13 08:57:11;;;;;;;16.77;10.68;;;;;;;13.36;47.71;98758.22;5045462;28;20066;-59
2022/04/13 09:00:02;;;;;;;16.67;9.80;;;;;;;13.46;48.38;98767.56;5050404;28;20025;-61
2022/04/13 09:02:39;;;;;;;17.52;10.02;;;;;;;13.40;48.33;98776.06;5043391;28;20485;-59
2022/04/13 09:05:12;;;;;;;14.75;9.55;;;;;;;13.46;48.80;98772.78;5043128;28;20024;-59
2022/04/13 09:07:37;;;;;;;14.95;9.60;;;;;;;13.55;50.14;98771.03;5043140;28;20025;-58
2022/04/13 09:10:04;;;;;;;18.77;10.00;;;;;;;13.61;47.32;98770.38;5036854;28;20593;-58
2022/04/13 09:12:33;;;;;;;24.63;11.18;;;;;;;13.76;48.96;98767.16;5027156;28;20029;-58
2022/04/13 09:15:01;;;;;;;17.42;10.43;;;;;;;13.95;48.35;98782.53;5045503;28;20025;-59
2022/04/13 09:17:29;;;;;;;17.33;9.80;;;;;;;13.97;49.11;98772.72;5037238;28;20098;-59
2022/04/13 09:19:56;;;;;;;17.83;10.18;;;;;;;14.29;45.02;98771.13;5044640;28;20055;-58
2022/04/13 09:22:22;;;;;;;16.83;9.68;;;;;;;14.41;44.33;98769.78;5031114;28;20040;-59
2022/04/13 09:24:48;;;;;;;15.85;9.40;;;;;;;14.43;44.23;98767.81;5032179;28;20029;-59
2022/04/13 09:27:13;;;;;;;18.05;10.27;;;;;;;14.38;43.75;98741.34;5039429;28;20123;-59
2022/04/13 09:29:39;;;;;;;19.60;10.25;;;;;;;14.58;42.91;98765.38;5047197;28;20267;-58
2022/04/13 09:32:05;;;;;;;19.88;10.55;;;;;;;14.57;42.60;98755.03;5045382;28;20086;-58
2022/04/13 09:34:30;;;;;;;18.95;10.77;;;;;;;14.80;41.47;98763.00;5045184;28;20112;-57
2022/04/13 09:36:55;;;;;;;18.55;9.77;;;;;;;14.84;43.51;98753.88;5046484;28;20047;-59
2022/04/13 09:39:21;;;;;;;19.90;10.80;;;;;;;14.88;41.73;98763.00;5040066;28;20032;-60
2022/04/13 09:41:47;;;;;;;22.55;10.55;;;;;;;14.98;41.50;98760.19;5043008;28;20899;-60
2022/04/13 09:44:18;;;;;;;18.38;10.23;;;;;;;15.09;41.12;98759.00;5041780;28;20025;-59
2022/04/13 09:46:44;;;;;;;18.35;10.85;;;;;;;15.15;40.28;98717.25;5041346;28;20139;-59
2022/04/13 09:49:13;;;;;;;18.70;10.07;;;;;;;15.37;41.29;98762.00;5028210;28;20021;-59
2022/04/13 09:51:40;;;;;;;18.95;10.50;;;;;;;15.41;40.52;98755.41;5039038;28;20112;-59
2022/04/13 09:54:12;;;;;;;18.63;10.82;;;;;;;15.36;39.52;98750.69;5025053;28;20025;-61
2022/04/13 09:56:47;;;;;;;21.02;10.88;;;;;;;15.42;40.33;98748.38;5027037;28;20471;-62
2022/04/13 09:59:24;;;;;;;19.25;10.32;;;;;;;15.43;40.79;98745.56;5039502;28;20017;-59
2022/04/13 10:01:49;;;;;;;18.20;10.30;;;;;;;15.54;40.14;98739.94;5025361;28;20040;-62
2022/04/13 10:04:29;;;;;;;18.42;10.82;;;;;;;15.49;40.35;98738.81;5056766;28;20032;-58
2022/04/13 10:06:54;;;;;;;18.30;10.45;;;;;;;15.60;40.56;98742.84;5032021;28;20143;-58
2022/04/13 10:09:22;;;;;;;16.58;10.20;;;;;;;15.67;40.15;98741.19;5046670;28;20131;-59
2022/04/13 10:12:03;;;;;;;20.77;10.80;;;;;;;15.71;39.57;98739.84;5045348;28;20058;-58
2022/04/13 10:14:32;;;;;;;20.48;10.93;;;;;;;15.76;40.41;98733.09;5024243;28;20054;-60
2022/04/13 10:17:07;;;;;;;19.17;11.52;;;;;;;15.74;39.14;98705.44;5037040;28;20115;-58
2022/04/13 10:19:33;;;;;;;19.52;10.18;;;;;;;16.11;39.34;98725.59;5049829;28;20029;-58
2022/04/13 10:21:59;;;;;;;19.17;10.95;;;;;;;16.02;39.80;98715.38;5045582;28;20056;-59
2022/04/13 10:24:36;;;;;;;21.75;10.80;;;;;;;16.09;40.11;98722.34;5046725;28;20539;-60
2022/04/13 10:27:01;;;;;;;17.60;11.00;;;;;;;16.08;39.76;98720.75;5047297;28;20365;-61
2022/04/13 10:29:27;;;;;;;17.38;10.23;;;;;;;16.11;39.15;98719.56;5048864;28;20055;-59
2022/04/13 10:32:06;;;;;;;18.30;10.80;;;;;;;16.00;38.97;98670.16;5048064;28;20032;-59
2022/04/13 10:34:46;;;;;;;22.23;10.98;;;;;;;16.30;39.17;98711.19;5048609;28;20130;-59
2022/04/13 10:37:12;;;;;;;;;;;;;;;16.26;39.18;98704.69;5040583;28;20027;-59
2022/04/13 10:39:38;;;;;;;22.75;11.65;;;;;;;16.37;39.36;98703.41;5035755;28;20245;-59
2022/04/13 10:42:07;;;;;;;21.90;11.75;;;;;;;16.37;39.53;98699.97;5049795;28;20099;-59
2022/04/13 10:44:41;;;;;;;21.63;12.10;;;;;;;16.42;38.79;98689.75;5053383;28;20298;-59
2022/04/13 10:47:09;;;;;;;21.05;11.57;;;;;;;16.64;39.33;98694.09;5040547;28;20491;-61
2022/04/13 10:49:41;;;;;;;18.55;11.40;;;;;;;16.63;38.30;98689.84;5060090;28;20032;-59
2022/04/13 10:52:14;;;;;;;18.17;11.13;;;;;;;16.38;37.78;98643.88;5047893;28;20029;-62
2022/04/13 10:54:44;;;;;;;21.17;11.13;;;;;;;16.43;38.09;98644.16;5049355;28;20025;-58
2022/04/13 10:57:10;;;;;;;21.65;11.65;;;;;;;16.72;37.59;98673.00;5057474;28;20023;-58
2022/04/13 10:59:44;;;;;;;21.58;12.05;;;;;;;16.88;38.48;98679.91;5047867;28;20398;-59
2022/04/13 11:02:29;;;;;;;21.55;11.52;;;;;;;17.06;37.31;98671.59;5042326;28;20067;-60
2022/04/13 11:04:56;;;;;;;19.98;11.98;;;;;;;17.04;37.41;98673.59;5036409;28;20457;-60
2022/04/13 11:07:23;;;;;;;22.55;11.48;;;;;;;17.07;37.44;98672.44;5057423;28;20089;-59
2022/04/13 11:09:55;;;;;;;21.25;12.82;;;;;;;17.09;37.58;98668.63;5059797;28;20104;-58
2022/04/13 11:12:21;;;;;;;22.60;11.63;;;;;;;16.91;37.70;98628.81;5041920;28;20025;-59
2022/04/13 11:14:52;;;;;;;20.92;12.27;;;;;;;17.29;37.48;98671.44;5045122;28;20025;-61
2022/04/13 11:17:24;;;;;;;20.23;11.77;;;;;;;17.22;37.39;98670.56;4999323;28;20028;-61
2022/04/13 11:19:49;;;;;;;22.02;12.30;;;;;;;17.15;37.19;98659.19;5070503;28;20024;-59
2022/04/13 11:22:19;;;;;;;25.10;12.63;;;;;;;17.34;37.67;98663.03;5042680;28;20032;-59
2022/04/13 11:24:47;;;;;;;25.23;12.27;;;;;;;17.35;37.02;98664.63;5039296;28;20031;-59
2022/04/13 11:27:14;;;;;;;25.23;12.60;;;;;;;17.33;36.81;98650.88;5042260;28;20025;-59
2022/04/13 11:29:41;;;;;;;21.38;11.93;;;;;;;17.42;37.10;98660.25;5041176;28;20027;-59
2022/04/13 11:32:10;;;;;;;20.48;12.40;;;;;;;17.38;37.15;98648.50;5042902;28;20082;-62
2022/04/13 11:34:50;;;;;;;21.98;12.80;;;;;;;17.46;37.54;98653.63;5046161;28;20029;-62
2022/04/13 11:37:18;;;;;;;22.10;12.60;;;;;;;17.52;36.86;98652.06;5050280;28;20467;-64
2022/04/13 11:39:44;;;;;;;20.50;11.73;;;;;;;17.54;36.96;98651.88;5030486;28;20399;-63
2022/04/13 11:42:25;;;;;;;25.92;13.15;;;;;;;17.23;36.12;98595.19;5040948;28;20021;-61
2022/04/13 11:44:55;;;;;;;20.05;11.98;;;;;;;17.29;36.96;98602.31;5045207;28;20116;-60
2022/04/13 11:47:22;;;;;;;23.00;12.93;;;;;;;17.66;36.60;98645.09;5043953;28;20020;-60
2022/04/13 11:50:01;;;;;;;24.65;12.90;;;;;;;17.69;36.42;98647.38;5047577;28;20658;-63
2022/04/13 11:52:52;;;;;;;26.80;13.43;;;;;;;17.49;36.26;98605.13;5042646;28;20036;-62
2022/04/13 11:55:26;;;;;;;22.35;13.32;;;;;;;17.68;36.19;98611.53;5040934;28;20190;-60
2022/04/13 11:58:04;;;;;;;23.90;12.55;;;;;;;17.86;36.45;98646.09;5039398;28;20043;-61
2022/04/13 12:00:52;;;;;;;21.45;13.25;;;;;;;17.74;36.58;98626.59;5043341;28;20029;-62
2022/04/13 12:03:30;;;;;;;24.05;12.00;;;;;;;17.84;36.68;98634.94;5045846;28;20021;-58
2022/04/13 12:05:58;;;;;;;23.40;12.38;;;;;;;17.94;36.86;98636.44;5041262;28;20061;-61
2022/04/13 12:08:33;;;;;;;24.63;13.88;;;;;;;17.95;36.47;98651.25;5053223;28;20139;-61
2022/04/13 12:11:07;;;;;;;24.15;12.88;;;;;;;17.63;36.44;98592.91;5046270;28;20035;-63
2022/04/13 12:13:51;;;;;;;24.95;13.02;;;;;;;18.03;35.33;98636.13;5054200;28;20029;-62
2022/04/13 12:16:19;;;;;;;24.95;12.95;;;;;;;17.83;36.49;98603.56;5049666;28;20021;-62
2022/04/13 12:18:44;;;;;;;28.17;14.13;;;;;;;18.11;37.02;98645.69;5035577;28;20391;-61
2022/04/13 12:21:17;;;;;;;23.23;12.60;;;;;;;18.04;36.66;98640.38;5042868;28;20029;-61
2022/04/13 12:23:44;;;;;;;25.35;12.88;;;;;;;18.03;36.60;98643.19;5044717;28;20032;-60
2022/04/13 12:26:09;;;;;;;21.38;12.75;;;;;;;18.04;36.58;98642.19;5040772;28;20104;-61
2022/04/13 12:28:36;;;;;;;23.40;12.13;;;;;;;18.19;36.77;98631.56;5039800;28;20111;-61
2022/04/13 12:31:10;;;;;;;24.63;13.13;;;;;;;18.32;36.97;98617.66;5041153;28;20024;-60
2022/04/13 12:33:37;;;;;;;25.67;13.65;;;;;;;18.46;36.21;98623.81;5047570;28;20013;-61
2022/04/13 12:36:07;;;;;;;24.83;12.85;;;;;;;18.44;35.93;98618.75;5027017;28;20033;-61
2022/04/13 12:38:36;;;;;;;24.88;14.13;;;;;;;18.54;35.23;98621.81;5043369;28;20375;-62
2022/04/13 12:41:14;;;;;;;24.75;12.98;;;;;;;18.59;35.97;98622.03;5042057;28;20123;-60
2022/04/13 12:44:04;;;;;;;23.77;13.55;;;;;;;18.65;35.80;98617.81;5041931;28;20032;-60
2022/04/13 12:46:31;;;;;;;23.10;13.43;;;;;;;18.56;36.59;98619.00;5039027;28;20029;-61
2022/04/13 12:48:57;;;;;;;24.98;13.63;;;;;;;18.58;35.72;98609.06;5053929;28;20184;-61
2022/04/13 12:51:24;;;;;;;21.88;12.70;;;;;;;18.55;36.29;98612.13;5043461;28;20078;-62
2022/04/13 12:53:50;;;;;;;25.35;13.05;;;;;;;18.37;36.04;98563.44;5043099;28;20108;-61
2022/04/13 12:56:18;;;;;;;23.52;13.60;;;;;;;18.76;35.48;98604.06;5051250;28;20056;-60
2022/04/13 12:58:44;;;;;;;25.63;13.60;;;;;;;18.75;35.41;98591.94;5044588;28;20108;-60
2022/04/13 13:01:21;;;;;;;23.88;13.48;;;;;;;18.81;35.53;98585.88;5046893;28;20036;-64
2022/04/13 13:03:46;;;;;;;22.77;12.50;;;;;;;18.72;35.28;98576.50;5058144;28;20099;-61
2022/04/13 13:06:12;;;;;;;26.58;12.77;;;;;;;18.86;35.94;98608.22;5039324;28;20075;-61
2022/04/13 13:08:58;;;;;;;25.50;14.00;;;;;;;18.91;35.97;98592.59;5041109;28;20531;-59
2022/04/13 13:11:28;;;;;;;27.73;14.45;;;;;;;18.88;35.57;98556.94;5041650;28;20090;-61
2022/04/13 13:14:04;;;;;;;25.13;14.40;;;;;;;19.09;34.75;98598.09;5054009;28;20108;-64
2022/04/13 13:16:34;;;;;;;25.48;13.68;;;;;;;19.13;35.43;98590.63;5040316;28;20028;-58
2022/04/13 13:19:20;;;;;;;25.63;14.07;;;;;;;19.19;35.36;98589.84;5049263;28;20063;-63
2022/04/13 13:22:14;;;;;;;27.38;14.38;;;;;;;19.13;35.15;98594.09;5057831;28;20104;-63
2022/04/13 13:24:56;;;;;;;22.75;13.98;;;;;;;19.26;35.40;98595.09;5041305;28;20013;-61
2022/04/13 13:27:23;;;;;;;24.63;13.27;;;;;;;19.22;35.61;98584.16;5042800;28;20029;-61
2022/04/13 13:29:49;;;;;;;25.88;13.82;;;;;;;19.16;36.01;98575.22;5041143;28;20048;-62
2022/04/13 13:32:16;;;;;;;28.00;14.23;;;;;;;19.20;35.97;98573.81;5026960;28;20387;-60
2022/04/13 13:35:03;;;;;;;24.70;14.30;;;;;;;19.29;35.49;98581.53;5041153;28;20029;-63
2022/04/13 13:37:47;;;;;;;26.83;14.35;;;;;;;19.13;35.93;98583.53;5048406;28;20028;-63
2022/04/13 13:40:40;;;;;;;22.98;14.00;;;;;;;19.15;35.94;98588.63;5039551;28;20485;-60
2022/04/13 13:43:07;;;;;;;22.10;12.73;;;;;;;19.14;36.85;98569.34;5043045;28;20017;-62
2022/04/13 13:45:37;;;;;;;25.55;13.77;;;;;;;19.31;36.78;98582.13;5048352;28;20560;-61
2022/04/13 13:48:03;;;;;;;;;;;;;;;19.26;36.38;98581.91;5041879;28;20083;-60
2022/04/13 13:50:30;;;;;;;25.23;13.50;;;;;;;19.20;35.91;98573.00;5075233;28;19923;-61
2022/04/13 13:52:56;;;;;;;26.80;14.50;;;;;;;19.23;35.89;98579.69;5046966;28;20081;-62
2022/04/13 13:55:29;;;;;;;24.65;13.45;;;;;;;19.31;36.21;98576.84;5045062;28;20795;-60
2022/04/13 13:57:56;;;;;;;22.20;13.75;;;;;;;19.33;35.96;98573.03;5032150;28;20110;-62
2022/04/13 14:00:26;;;;;;;25.42;13.38;;;;;;;19.26;36.00;98564.28;5055232;28;20090;-62
2022/04/13 14:02:52;;;;;;;21.67;13.20;;;;;;;19.25;36.46;98570.56;5044239;28;20318;-61
2022/04/13 14:05:25;;;;;;;22.98;13.63;;;;;;;19.34;36.50;98568.56;5044141;28;20107;-60
2022/04/13 14:07:53;;;;;;;18.00;12.55;;;;;;;19.54;36.38;98565.91;5045657;28;20102;-61
2022/04/13 14:10:19;;;;;;;23.85;14.23;;;;;;;19.54;36.04;98566.72;5076236;28;20028;-61
2022/04/13 14:12:45;;;;;;;21.67;13.95;;;;;;;19.54;36.16;98568.56;5046092;28;20062;-61
2022/04/13 14:15:11;;;;;;;21.10;13.48;;;;;;;19.32;36.66;98567.94;5050349;28;20103;-63
2022/04/13 14:17:43;;;;;;;24.38;13.85;;;;;;;19.22;36.71;98563.09;5057854;28;20032;-61
2022/04/13 14:20:10;;;;;;;21.83;12.82;;;;;;;19.14;37.40;98561.44;5049504;28;20073;-64
2022/04/13 14:22:36;;;;;;;25.15;14.20;;;;;;;18.97;37.17;98568.13;5055498;28;20024;-60
2022/04/13 14:25:04;;;;;;;23.83;16.00;;;;;;;18.88;37.45;98558.78;5061911;28;20025;-60
2022/04/13 14:27:29;;;;;;;21.25;14.52;;;;;;;18.90;37.85;98554.91;5056843;28;20108;-61
2022/04/13 14:29:57;;;;;;;24.33;16.05;;;;;;;18.74;37.78;98565.78;5061117;28;20124;-60
2022/04/13 14:32:27;;;;;;;22.10;15.45;;;;;;;18.72;38.12;98565.97;5032086;28;20043;-63
2022/04/13 14:34:53;;;;;;;21.92;14.82;;;;;;;18.77;38.09;98568.03;5046291;28;20032;-61
2022/04/13 14:37:18;;;;;;;22.17;15.65;;;;;;;18.74;38.54;98574.50;5058321;28;20032;-60
2022/04/13 14:39:44;;;;;;;20.73;15.07;;;;;;;18.80;38.81;98578.16;5055292;28;20031;-60
2022/04/13 14:42:09;;;;;;;25.40;16.00;;;;;;;18.92;38.71;98573.16;5051735;28;20040;-60
2022/04/13 14:44:34;;;;;;;23.02;16.13;;;;;;;19.00;38.56;98568.53;5050122;28;20036;-62
2022/04/13 14:47:00;;;;;;;23.35;16.02;;;;;;;18.95;38.05;98556.97;5043489;28;20113;-59
2022/04/13 14:49:25;;;;;;;21.20;15.38;;;;;;;19.16;38.21;98555.97;5046933;28;20719;-62
2022/04/13 14:51:52;;;;;;;29.77;17.02;;;;;;;19.01;37.81;98521.91;5049151;28;20036;-65
2022/04/13 14:54:18;;;;;;;23.90;17.02;;;;;;;18.99;37.84;98547.63;5045178;28;20025;-62
2022/04/13 14:56:44;;;;;;;21.75;16.48;;;;;;;19.08;37.79;98558.81;5050058;28;20036;-62
2022/04/13 14:59:09;;;;;;;24.67;16.77;;;;;;;19.13;38.11;98565.09;5029405;28;20095;-61
2022/04/13 15:01:34;;;;;;;21.52;16.05;;;;;;;19.29;38.33;98571.78;5042331;28;20029;-61
2022/04/13 15:04:00;;;;;;;24.80;15.15;;;;;;;19.34;37.98;98572.00;5040864;28;20068;-60
2022/04/13 15:06:25;;;;;;;27.77;15.98;;;;;;;19.23;37.68;98550.72;5042141;28;20055;-61
2022/04/13 15:08:51;;;;;;;24.52;15.60;;;;;;;19.03;37.95;98517.25;5044604;28;20029;-62
2022/04/13 15:11:18;;;;;;;23.25;14.57;;;;;;;19.32;37.96;98563.47;5045504;28;20142;-61
2022/04/13 15:13:43;;;;;;;20.38;14.07;;;;;;;19.25;37.82;98573.19;5047224;28;20032;-61
2022/04/13 15:16:09;;;;;;;22.17;15.43;;;;;;;19.32;37.66;98578.50;5045506;28;20021;-62
2022/04/13 15:18:34;;;;;;;22.65;14.75;;;;;;;19.21;37.93;98572.00;5048018;28;20074;-61
2022/04/13 15:21:00;;;;;;;23.90;14.98;;;;;;;19.10;38.69;98569.97;5047587;28;20036;-60
2022/04/13 15:23:25;;;;;;;18.27;14.25;;;;;;;18.92;38.91;98533.66;5046533;28;20064;-63
2022/04/13 15:25:50;;;;;;;20.13;14.02;;;;;;;19.15;38.72;98568.34;5038685;28;20583;-62
2022/04/13 15:28:17;;;;;;;23.10;14.85;;;;;;;19.04;38.66;98573.38;5032841;28;20588;-60
2022/04/13 15:30:42;;;;;;;21.17;15.05;;;;;;;18.79;38.91;98558.91;5045750;28;20025;-60
2022/04/13 15:33:08;;;;;;;23.08;14.93;;;;;;;18.59;39.15;98529.88;5046585;28;20036;-61
2022/04/13 15:35:33;;;;;;;24.35;14.93;;;;;;;18.91;39.83;98577.63;5026512;28;20120;-63
2022/04/13 15:37:59;;;;;;;20.30;14.98;;;;;;;18.93;39.47;98572.97;5042993;28;20490;-61
2022/04/13 15:40:25;;;;;;;20.52;14.48;;;;;;;18.74;39.46;98542.09;5046772;28;20077;-60
2022/04/13 15:42:50;;;;;;;19.67;14.13;;;;;;;18.85;39.73;98554.69;5044003;28;20372;-62
2022/04/13 15:45:16;;;;;;;19.92;15.10;;;;;;;18.95;39.80;98581.47;5040673;28;20097;-62
2022/04/13 15:47:43;;;;;;;21.13;15.20;;;;;;;18.83;39.88;98577.78;5078122;28;20071;-61
2022/04/13 15:50:09;;;;;;;23.98;14.95;;;;;;;18.93;40.00;98582.66;5027700;28;20036;-61
2022/04/13 15:52:35;;;;;;;22.45;14.90;;;;;;;18.81;40.60;98583.25;5042964;28;20089;-60
2022/04/13 15:55:01;;;;;;;20.52;15.05;;;;;;;18.92;40.53;98578.44;5044309;28;20028;-62
2022/04/13 15:57:26;;;;;;;20.60;15.48;;;;;;;18.96;40.32;98580.44;5045154;28;20068;-61
2022/04/13 15:59:52;;;;;;;19.30;14.88;;;;;;;18.94;40.24;98587.75;5045205;28;20049;-61
2022/04/13 16:02:18;;;;;;;19.23;14.50;;;;;;;18.91;40.48;98575.00;5053043;28;20032;-61
2022/04/13 16:04:43;;;;;;;21.50;15.02;;;;;;;18.67;40.20;98544.69;5049105;28;20025;-60
2022/04/13 16:07:09;;;;;;;19.80;15.02;;;;;;;18.91;40.37;98584.69;5045051;28;20464;-62
2022/04/13 16:09:36;;;;;;;22.52;15.65;;;;;;;18.76;40.56;98584.84;5063685;28;20033;-60
2022/04/13 16:12:02;;;;;;;22.63;14.93;;;;;;;18.71;40.97;98598.59;5049364;28;20021;-61
2022/04/13 16:14:30;;;;;;;23.88;14.93;;;;;;;18.56;41.02;98590.88;5045115;28;20370;-64
2022/04/13 16:16:55;;;;;;;19.85;15.27;;;;;;;18.42;40.82;98568.91;5079010;28;20017;-62
2022/04/13 16:19:21;;;;;;;19.20;14.52;;;;;;;18.59;41.08;98590.44;5044074;28;20040;-62
2022/04/13 16:21:47;;;;;;;20.48;14.30;;;;;;;18.55;41.22;98604.22;5047550;28;20056;-63
2022/04/13 16:24:12;;;;;;;22.02;15.65;;;;;;;18.27;41.05;98556.91;5045131;28;20087;-61
2022/04/13 16:26:38;;;;;;;19.40;15.73;;;;;;;18.38;41.68;98604.56;5042269;28;20429;-61
2022/04/13 16:29:03;;;;;;;22.67;14.95;;;;;;;18.25;41.47;98580.78;5002977;28;20667;-60
2022/04/13 16:31:28;;;;;;;22.05;16.25;;;;;;;18.09;41.64;98586.34;5046541;28;20036;-61
2022/04/13 16:33:54;;;;;;;19.70;15.40;;;;;;;18.18;41.87;98595.72;5034167;28;20029;-60
2022/04/13 16:36:19;;;;;;;18.85;15.75;;;;;;;18.11;42.18;98608.00;5043115;28;20037;-60
2022/04/13 16:38:46;;;;;;;22.63;15.63;;;;;;;17.87;42.40;98573.28;5028718;28;20372;-63
2022/04/13 16:41:12;;;;;;;25.88;16.02;;;;;;;18.06;42.50;98606.78;5035537;28;20059;-60
2022/04/13 16:43:38;;;;;;;20.50;14.95;;;;;;;17.83;42.98;98585.97;5045319;28;20111;-60
2022/04/13 16:46:03;;;;;;;22.60;15.95;;;;;;;17.73;42.87;98582.88;5042939;28;20104;-61
2022/04/13 16:48:29;;;;;;;21.60;15.32;;;;;;;18.00;42.78;98614.66;5043334;28;20028;-63
2022/04/13 16:50:54;;;;;;;20.27;14.95;;;;;;;17.90;43.01;98622.06;5044214;28;20411;-61
2022/04/13 16:53:20;;;;;;;23.95;15.15;;;;;;;17.93;42.94;98624.31;5045608;28;20641;-61
2022/04/13 16:55:45;;;;;;;21.40;15.35;;;;;;;17.91;43.15;98628.97;5057147;28;20035;-60
2022/04/13 16:58:12;;;;;;;20.48;15.00;;;;;;;17.76;43.83;98629.81;5032001;28;20033;-61
